Airfield :
LOGIN :

Register | Disclaimer

   EN    FR    IT 

 










Legend :    VFR   Marginal VFR   IFR   Intensive IFR   Very Intensive IFR
Visi :
Ceiling :
>= 8 km
>= 3000ft
5 to 8 km
1000 to 3000 ft
1500m to 5 km
500 to 1000 ft
800 to 1500m
200 to 500 ft
< 800m
< 200 ft
Symbols :   Thunderstorms  Fog  Heavy snow  Heavy precipitations  Wind > 20 kt
SIGMETs :     Misc.  Thunderstorms  Icing  Turbulence  Mountain Waves  Volcanic Ashes







- Airport Elevation : 856 ft
- IATA code : VGO


LEVX - Vigo Peinador

CURRENT METAR :
  • 181830Z 27008KT 240V300 9999 SCT030 14/10 Q1014 NOSIG

EXPIRED METARs :
  • 181800Z 28008KT 240V320 9999 FEW023 15/10 Q1013 NOSIG
  • 181730Z VRB02KT 9999 FEW022 16/10 Q1013 NOSIG
  • 181700Z 32005KT 250V010 9999 FEW025 16/11 Q1013 NOSIG
  • 181630Z 28010KT 250V320 9999 FEW028 14/11 Q1013 NOSIG
  • 181600Z 27008KT 240V300 9999 FEW045 14/11 Q1013 TEMPO 3000 DZ BKN010

TAF TAF LEVX
Valid from the 18 at 18:00 until the 19 at 18:00 UTC


181700Z 1818/1918 36009KT 9999 SCT020 BKN030 TX22/1915Z TN09/1906Z
PROB40
TEMPO 1818/1821 3000 DZ SHRA BKN010 SCT030TCU
TEMPO 1818/1820 27010KT
PROB30
TEMPO 1818/1821 3000 TSRA SCT030CB
PROB40
TEMPO 1900/1909 1500 -RA BCFG BKN010
No reported NOTAMs for that airfield.
2 SIGMETs reported for the Madrid FIR (LECM) :
 
Severe turbulence
LECM SIGMET 9 VALID 181500/181900 LEVA
LECM MADRID FIR/UIR SEV TURB FCST W OF LINE N4149 W00759 - N45 W00931 FL220/330 STNR WKN=
Embedded thunderstorms
LECM SIGMET 11 VALID 181830/182000 LEVA
LECM MADRID FIR/UIR EMBD TS OBS AT 1750Z WI N4142 W00613 - N4141 W00411 - N3757 W00224 - N3641 W00246 - N3633 W00713 - N3929 W00714 - N4142 W00613 TOP FL300 STNR NC=



MET'MAP, your aeronautical weather chart ! - Copyright ORBIFLY December 2007 - Disclaimer

ORBIFLY MET'MAP TEAM :

Programming & Development : Alexandra Zaïnal
Concept & Development : Baudouin d'Aumeries
Co-Development & Prog : Marc-Olivier Méhu
Technical & hardware support : Manuel Goepfert

Contact : metmap@orbifly.com




SOURCES & CREDITS :

   NOAA